Time;durP1;ratioP1;P1;durP2;ratioP2;P2;SDS_P1;SDS_P2;PMS_P1;PMS_P2;Temp;Humidity;BMP_temperature;BMP_pressure;BME280_temperature;BME280_humidity;BME280_pressure;Samples;Min_cycle;Max_cycle;Signal;HPM_P1;HPM_P2
2023/04/05 00:02:17;;;;;;;;;;;;;;;1.30;55.83;102035.55;108266;1255;74924;-84
2023/04/05 00:04:49;;;;;;;;;;;;;;;1.30;55.72;102033.96;108254;1254;124047;-84
2023/04/05 00:07:17;;;;;;;;;;;;;;;1.30;55.68;102040.01;107935;1259;71504;-83
2023/04/05 00:09:47;;;;;;;;;;;;;;;1.29;55.69;102038.86;108178;1254;62175;-84
2023/04/05 00:12:15;;;;;;;;;;;;;;;1.28;55.76;102043.63;107489;1255;124093;-83
2023/04/05 00:14:48;;;;;;;;;;;;;;;1.27;55.84;102041.33;107785;1254;75435;-83
2023/04/05 00:17:23;;;;;;;;;;;;;;;1.27;55.76;102039.60;107753;1254;124226;-84
2023/04/05 00:19:56;;;;;;;;;;;;;;;1.27;55.56;102041.48;107968;1258;72702;-83
2023/04/05 00:22:25;;;;;;;;;;;;;;;1.26;55.91;102034.52;107804;1254;124259;-83
2023/04/05 00:24:52;;;;;;;;;;;;;;;1.28;55.84;102037.08;108094;1257;60316;-83
2023/04/05 00:27:19;;;;;;;;;;;;;;;1.28;55.72;102036.55;108101;1254;74157;-83
2023/04/05 00:29:46;;;;;;;;;;;;;;;1.28;55.80;102035.51;107873;1255;124132;-83
2023/04/05 00:32:14;;;;;;;;;;;;;;;1.27;55.70;102032.33;108093;1253;73196;-83
2023/04/05 00:34:41;;;;;;;;;;;;;;;1.26;55.84;102029.31;107914;1254;124776;-82
2023/04/05 00:37:08;;;;;;;;;;;;;;;1.26;55.86;102026.70;108178;1259;60103;-83
2023/04/05 00:39:35;;;;;;;;;;;;;;;1.26;55.85;102021.52;108260;1254;73914;-83
2023/04/05 00:42:03;;;;;;;;;;;;;;;1.26;55.74;102019.93;107761;1254;124384;-83
2023/04/05 00:44:33;;;;;;;;;;;;;;;1.25;55.95;102018.48;107680;1259;72558;-83
2023/04/05 00:47:02;;;;;;;;;;;;;;;1.25;55.70;102018.98;107382;1254;124291;-83
2023/04/05 00:49:29;;;;;;;;;;;;;;;1.26;55.88;102021.65;107922;1254;61596;-83
2023/04/05 00:51:57;;;;;;;;;;;;;;;1.26;55.79;102020.45;107913;1256;75269;-83
2023/04/05 00:54:28;;;;;;;;;;;;;;;1.24;55.76;102020.67;107791;1258;66541;-83
2023/04/05 00:56:55;;;;;;;;;;;;;;;1.23;55.76;102018.36;107619;1254;72696;-84
2023/04/05 00:59:22;;;;;;;;;;;;;;;1.23;55.71;102019.73;107452;1254;124255;-83
2023/04/05 01:01:53;;;;;;;;;;;;;;;1.24;55.84;102020.70;107695;1254;60153;-83
2023/04/05 01:04:24;;;;;;;;;;;;;;;1.24;55.89;102020.17;107741;1253;125079;-83
2023/04/05 01:06:54;;;;;;;;;;;;;;;1.23;55.89;102021.10;107610;1258;67135;-83
2023/04/05 01:09:28;;;;;;;;;;;;;;;1.22;55.92;102016.73;107733;1254;71202;-83
2023/04/05 01:11:57;;;;;;;;;;;;;;;1.20;55.97;102017.84;107376;1254;124420;-83
2023/04/05 01:14:24;;;;;;;;;;;;;;;1.14;55.89;102012.73;107676;1254;61694;-83
2023/04/05 01:16:56;;;;;;;;;;;;;;;1.04;55.73;102010.66;107773;1253;124966;-83
2023/04/05 01:19:27;;;;;;;;;;;;;;;0.91;55.83;102011.34;107410;1254;65777;-83
2023/04/05 01:21:57;;;;;;;;;;;;;;;0.77;56.14;102012.10;107048;1254;71180;-83
2023/04/05 01:24:31;;;;;;;;;;;;;;;0.63;56.12;102009.71;107492;1254;60045;-83
2023/04/05 01:27:04;;;;;;;;;;;;;;;0.50;56.29;102011.84;107587;1254;61940;-83
2023/04/05 01:29:34;;;;;;;;;;;;;;;0.39;56.52;102013.00;107562;1254;124624;-83
2023/04/05 01:32:16;;;;;;;;;;;;;;;0.32;56.66;102014.24;107521;1254;67077;-83
2023/04/05 01:34:50;;;;;;;;;;;;;;;0.28;56.95;102015.48;107540;1253;124210;-83
2023/04/05 01:37:25;;;;;;;;;;;;;;;0.25;57.00;102009.40;107758;1257;60354;-83
2023/04/05 01:39:54;;;;;;;;;;;;;;;0.24;57.10;102008.02;107652;1254;61878;-83
2023/04/05 01:42:23;;;;;;;;;;;;;;;0.23;57.27;102002.83;107684;1259;124448;-83
2023/04/05 01:44:51;;;;;;;;;;;;;;;0.25;57.28;102002.23;107949;1254;67313;-83
2023/04/05 01:47:19;;;;;;;;;;;;;;;0.29;57.53;102003.35;107913;1254;124080;-84
2023/04/05 01:49:47;;;;;;;;;;;;;;;0.34;57.31;102003.31;107700;1255;61959;-83
2023/04/05 01:52:19;;;;;;;;;;;;;;;0.39;57.36;102004.05;107821;1254;124268;-82
2023/04/05 01:54:46;;;;;;;;;;;;;;;0.45;57.57;102000.52;107775;1253;75505;-84
2023/04/05 01:57:15;;;;;;;;;;;;;;;0.47;57.51;102000.55;107963;1253;66830;-84
2023/04/05 01:59:42;;;;;;;;;;;;;;;0.49;57.48;102001.58;107650;1254;124287;-83
2023/04/05 02:02:09;;;;;;;;;;;;;;;0.50;57.48;102001.17;107832;1254;62229;-83
2023/04/05 02:04:36;;;;;;;;;;;;;;;0.51;57.41;101999.70;107683;1260;124414;-84
2023/04/05 02:07:15;;;;;;;;;;;;;;;0.53;57.38;101999.73;107348;1257;75903;-84
2023/04/05 02:09:49;;;;;;;;;;;;;;;0.55;57.29;101998.99;107352;1255;66472;-84
2023/04/05 02:12:16;;;;;;;;;;;;;;;0.55;57.34;101997.09;107633;1257;124171;-84
2023/04/05 02:14:43;;;;;;;;;;;;;;;0.54;57.43;101996.66;107947;1257;62153;-83
2023/04/05 02:17:12;;;;;;;;;;;;;;;0.55;57.44;101990.33;107477;1260;125076;-84
2023/04/05 02:19:45;;;;;;;;;;;;;;;0.55;57.35;101987.64;107760;1256;76674;-83
2023/04/05 02:22:14;;;;;;;;;;;;;;;0.56;57.65;101986.66;107381;1260;124468;-83
2023/04/05 02:24:41;;;;;;;;;;;;;;;0.57;57.32;101983.95;107544;1257;73148;-83
2023/04/05 02:27:08;;;;;;;;;;;;;;;0.56;57.44;101982.80;107353;1257;60733;-83
2023/04/05 02:29:35;;;;;;;;;;;;;;;0.54;57.44;101986.65;107289;1257;124878;-82
2023/04/05 02:32:04;;;;;;;;;;;;;;;0.50;57.55;101983.14;107762;1257;75970;-82
2023/04/05 02:34:32;;;;;;;;;;;;;;;0.45;57.47;101979.48;108256;1256;124532;-82
2023/04/05 02:37:00;;;;;;;;;;;;;;;0.39;57.54;101978.26;107708;1256;70574;-82
2023/04/05 02:39:29;;;;;;;;;;;;;;;0.34;57.48;101980.77;107811;1256;60065;-83
2023/04/05 02:41:57;;;;;;;;;;;;;;;0.29;57.55;101978.48;107473;1259;124058;-83
2023/04/05 02:44:25;;;;;;;;;;;;;;;0.25;57.74;101980.67;107576;1257;75348;-83
2023/04/05 02:46:53;;;;;;;;;;;;;;;0.22;57.71;101980.63;107954;1256;124068;-83
2023/04/05 02:49:21;;;;;;;;;;;;;;;0.17;57.82;101979.02;108019;1254;73266;-83
2023/04/05 02:51:54;;;;;;;;;;;;;;;0.13;57.86;101982.60;107651;1256;60557;-83
2023/04/05 02:54:21;;;;;;;;;;;;;;;0.08;57.77;101977.65;107492;1256;124367;-83
2023/04/05 02:56:53;;;;;;;;;;;;;;;0.04;58.01;101977.88;107810;1256;73596;-83
2023/04/05 02:59:20;;;;;;;;;;;;;;;0.03;58.10;101978.28;107386;1262;124622;-83
2023/04/05 03:01:48;;;;;;;;;;;;;;;0.02;58.19;101979.64;107854;1256;73163;-83
2023/04/05 03:04:16;;;;;;;;;;;;;;;0.04;58.32;101977.17;107919;1257;124919;-83
2023/04/05 03:06:47;;;;;;;;;;;;;;;0.06;58.27;101974.24;108206;1257;62015;-83
2023/04/05 03:09:14;;;;;;;;;;;;;;;0.09;58.28;101974.66;107740;1255;75496;-83
2023/04/05 03:11:43;;;;;;;;;;;;;;;0.10;58.42;101975.80;107688;1256;124351;-82
2023/04/05 03:14:12;;;;;;;;;;;;;;;0.13;58.43;101973.95;107461;1256;71375;-82
2023/04/05 03:16:41;;;;;;;;;;;;;;;0.14;58.40;101974.07;107319;1259;124960;-83
2023/04/05 03:19:08;;;;;;;;;;;;;;;0.14;58.57;101977.21;107501;1256;61989;-83
2023/04/05 03:21:36;;;;;;;;;;;;;;;0.14;58.65;101978.06;107573;1257;75983;-83
2023/04/05 03:24:03;;;;;;;;;;;;;;;0.13;58.48;101972.66;107487;1255;124393;-83
2023/04/05 03:26:32;;;;;;;;;;;;;;;0.15;58.77;101974.04;107670;1257;71305;-82
2023/04/05 03:28:59;;;;;;;;;;;;;;;0.17;58.72;101973.52;107336;1256;124349;-82
2023/04/05 03:31:29;;;;;;;;;;;;;;;0.21;58.81;101974.98;108831;1256;60136;-83
2023/04/05 03:33:57;;;;;;;;;;;;;;;0.23;58.72;101971.02;108988;1256;75205;-83
2023/04/05 03:36:27;;;;;;;;;;;;;;;0.24;58.78;101970.45;108652;1256;67136;-83
2023/04/05 03:38:54;;;;;;;;;;;;;;;0.25;58.85;101964.60;107567;1257;73064;-83
2023/04/05 03:41:28;;;;;;;;;;;;;;;0.24;59.01;101963.87;107422;1256;124271;-83
2023/04/05 03:43:58;;;;;;;;;;;;;;;0.25;58.91;101960.85;107362;1258;61885;-84
2023/04/05 03:46:26;;;;;;;;;;;;;;;0.27;58.78;101962.39;107484;1256;124462;-83
2023/04/05 03:48:54;;;;;;;;;;;;;;;0.27;59.04;101960.02;107591;1255;65546;-82
2023/04/05 03:51:27;;;;;;;;;;;;;;;0.27;58.97;101961.68;107642;1256;72717;-82
2023/04/05 03:53:57;;;;;;;;;;;;;;;0.27;59.04;101962.02;107413;1255;124545;-83
2023/04/05 03:56:24;;;;;;;;;;;;;;;0.26;58.91;101961.77;107620;1256;61150;-82
2023/04/05 03:58:52;;;;;;;;;;;;;;;0.27;58.91;101959.77;107277;1257;124103;-85
2023/04/05 04:01:20;;;;;;;;;;;;;;;0.29;59.01;101956.55;107251;1256;66355;-81
2023/04/05 04:03:47;;;;;;;;;;;;;;;0.28;58.88;101954.73;107732;1254;73365;-82
2023/04/05 04:06:14;;;;;;;;;;;;;;;0.26;58.89;101952.84;107591;1254;124573;-82
2023/04/05 04:08:41;;;;;;;;;;;;;;;0.24;59.17;101954.03;108148;1254;61793;-81
2023/04/05 04:11:08;;;;;;;;;;;;;;;0.22;58.99;101948.85;107902;1254;124692;-82
2023/04/05 04:13:35;;;;;;;;;;;;;;;0.20;59.19;101949.75;107921;1254;65899;-82
2023/04/05 04:16:03;;;;;;;;;;;;;;;0.20;59.04;101954.02;107575;1254;125382;-83
2023/04/05 04:18:29;;;;;;;;;;;;;;;0.19;59.18;101956.90;107661;1253;62061;-83
2023/04/05 04:20:57;;;;;;;;;;;;;;;0.19;59.19;101954.89;107767;1254;60596;-84
2023/04/05 04:23:33;;;;;;;;;;;;;;;0.18;59.13;101958.94;107470;1254;124227;-83
2023/04/05 04:26:00;;;;;;;;;;;;;;;0.18;59.25;101956.80;107550;1254;65837;-83
2023/04/05 04:28:28;;;;;;;;;;;;;;;0.15;59.30;101958.12;107689;1253;124744;-82
2023/04/05 04:30:55;;;;;;;;;;;;;;;0.14;59.34;101962.00;107939;1253;62006;-83
2023/04/05 04:33:24;;;;;;;;;;;;;;;0.14;59.45;101964.56;108006;1254;61961;-82
2023/04/05 04:35:53;;;;;;;;;;;;;;;0.15;59.61;101966.42;107858;1254;124076;-82
2023/04/05 04:38:24;;;;;;;;;;;;;;;0.16;59.62;101966.14;107647;1256;67856;-84
2023/04/05 04:40:52;;;;;;;;;;;;;;;0.20;59.73;101962.64;107982;1254;124141;-83
2023/04/05 04:43:26;;;;;;;;;;;;;;;0.26;59.83;101961.42;108482;1259;60403;-83
2023/04/05 04:45:58;;;;;;;;;;;;;;;0.32;59.83;101961.47;108361;1253;61253;-81
2023/04/05 04:48:25;;;;;;;;;;;;;;;0.40;59.67;101957.67;108124;1253;74189;-82
2023/04/05 04:50:53;;;;;;;;;;;;;;;0.49;59.83;101958.89;107477;1254;65767;-81
2023/04/05 04:53:21;;;;;;;;;;;;;;;0.59;59.60;101960.12;107517;1254;124053;-80
2023/04/05 04:55:49;;;;;;;;;;;;;;;0.71;59.83;101957.02;107729;1253;61148;-82
2023/04/05 04:58:17;;;;;;;;;;;;;;;0.85;59.60;101956.73;107628;1254;124747;-81
2023/04/05 05:00:47;;;;;;;;;;;;;;;1.81;60.89;101956.75;108093;1253;75934;-82
2023/04/05 05:03:15;;;;;;;;;;;;;;;3.74;61.25;101945.27;108015;1253;65844;-82
2023/04/05 05:05:48;;;;;;;;;;;;;;;5.06;59.74;101939.42;107467;1253;124192;-82
2023/04/05 05:08:16;;;;;;;;;;;;;;;5.66;57.38;101936.20;107481;1253;60765;-82
2023/04/05 05:10:45;;;;;;;;;;;;;;;5.64;55.82;101938.63;107379;1256;124347;-84
2023/04/05 05:13:12;;;;;;;;;;;;;;;5.41;55.06;101939.23;107778;1253;75495;-82
2023/04/05 05:15:40;;;;;;;;;;;;;;;5.03;54.58;101941.09;107890;1253;65445;-80
2023/04/05 05:18:09;;;;;;;;;;;;;;;4.69;54.67;101937.98;107492;1253;124609;-81
2023/04/05 05:20:36;;;;;;;;;;;;;;;4.36;54.69;101937.33;107991;1253;62055;-80
2023/04/05 05:23:05;;;;;;;;;;;;;;;4.04;54.66;101939.57;107902;1253;124402;-81
2023/04/05 05:25:35;;;;;;;;;;;;;;;3.77;54.95;101941.88;107681;1254;75489;-83
2023/04/05 05:28:08;;;;;;;;;;;;;;;3.64;54.99;101942.36;107387;1253;124221;-82
2023/04/05 05:30:35;;;;;;;;;;;;;;;3.74;55.28;101939.39;107693;1254;71267;-82
2023/04/05 05:33:04;;;;;;;;;;;;;;;3.88;55.40;101939.73;107642;1254;60424;-82
2023/04/05 05:35:31;;;;;;;;;;;;;;;4.00;55.47;101935.34;107526;1253;124240;-82
2023/04/05 05:38:01;;;;;;;;;;;;;;;4.02;55.07;101935.65;107706;1253;73186;-82
2023/04/05 05:40:28;;;;;;;;;;;;;;;3.91;55.00;101934.69;107498;1254;65814;-82
2023/04/05 05:42:57;;;;;;;;;;;;;;;3.73;54.75;101938.42;107478;1254;71135;-82
2023/04/05 05:45:31;;;;;;;;;;;;;;;3.51;54.82;101938.94;107512;1254;62120;-82
2023/04/05 05:48:00;;;;;;;;;;;;;;;3.38;55.15;101942.31;107190;1253;62051;-82
2023/04/05 05:50:31;;;;;;;;;;;;;;;3.28;55.29;101943.41;107406;1259;74442;-81
2023/04/05 05:53:01;;;;;;;;;;;;;;;3.22;55.33;101941.52;107510;1253;124471;-82
2023/04/05 05:55:36;;;;;;;;;;;;;;;3.13;55.39;101941.58;107335;1253;71394;-82
2023/04/05 05:58:05;;;;;;;;;;;;;;;3.08;55.65;101948.64;107333;1253;62120;-82
2023/04/05 06:00:37;;;;;;;;;;;;;;;3.00;55.57;101945.25;107719;1253;61540;-82
2023/04/05 06:03:04;;;;;;;;;;;;;;;2.93;55.55;101945.11;107831;1253;74744;-82
2023/04/05 06:05:32;;;;;;;;;;;;;;;2.93;55.90;101942.73;107383;1253;124221;-81
2023/04/05 06:08:05;;;;;;;;;;;;;;;2.97;55.88;101940.35;107348;1254;70123;-82
2023/04/05 06:10:32;;;;;;;;;;;;;;;3.01;55.91;101941.03;107371;1253;124254;-82
2023/04/05 06:12:59;;;;;;;;;;;;;;;3.06;55.90;101942.61;107438;1253;62047;-82
2023/04/05 06:15:26;;;;;;;;;;;;;;;3.12;55.75;101940.79;107495;1253;75437;-82
2023/04/05 06:17:55;;;;;;;;;;;;;;;3.23;55.82;101940.88;107367;1253;124091;-82
2023/04/05 06:20:25;;;;;;;;;;;;;;;3.39;55.74;101937.02;107513;1256;72536;-81
2023/04/05 06:22:54;;;;;;;;;;;;;;;3.56;55.66;101932.70;107483;1256;124958;-81
2023/04/05 06:25:27;;;;;;;;;;;;;;;3.58;55.36;101937.41;107743;1253;62018;-81
2023/04/05 06:27:55;;;;;;;;;;;;;;;3.47;55.22;101937.44;107449;1254;75405;-81
2023/04/05 06:30:25;;;;;;;;;;;;;;;3.35;55.30;101939.72;107436;1253;124759;-81
2023/04/05 06:32:53;;;;;;;;;;;;;;;3.27;55.27;101938.98;107652;1253;71919;-81
2023/04/05 06:35:26;;;;;;;;;;;;;;;3.19;55.20;101940.23;107364;1257;124309;-81
2023/04/05 06:37:54;;;;;;;;;;;;;;;3.12;55.39;101937.34;107230;1257;60879;-81
2023/04/05 06:40:22;;;;;;;;;;;;;;;3.09;55.21;101937.83;107191;1253;124947;-81
2023/04/05 06:42:49;;;;;;;;;;;;;;;3.06;55.32;101933.39;107411;1254;65140;-81
2023/04/05 06:45:18;;;;;;;;;;;;;;;3.06;55.37;101928.92;107681;1254;72363;-82
2023/04/05 06:47:45;;;;;;;;;;;;;;;3.07;55.50;101930.36;107799;1253;124680;-81
2023/04/05 06:50:12;;;;;;;;;;;;;;;3.08;55.43;101927.20;107429;1254;60514;-81
2023/04/05 06:52:43;;;;;;;;;;;;;;;3.17;55.63;101925.91;107614;1253;124240;-82
2023/04/05 06:55:38;;;;;;;;;;;;;;;3.30;55.27;101931.05;107842;1253;67595;-82
2023/04/05 06:58:06;;;;;;;;;;;;;;;3.43;54.75;101929.86;107334;1254;71156;-83
2023/04/05 07:00:33;;;;;;;;;;;;;;;3.51;54.70;101931.27;107332;1253;123905;-83
2023/04/05 07:03:01;;;;;;;;;;;;;;;3.58;54.53;101934.28;107497;1253;60089;-82
2023/04/05 07:05:39;;;;;;;;;;;;;;;3.70;54.48;101931.83;107423;1253;124965;-82
2023/04/05 07:08:06;;;;;;;;;;;;;;;3.93;54.30;101925.84;107762;1254;65819;-83
2023/04/05 07:10:40;;;;;;;;;;;;;;;4.15;53.99;101923.34;107630;1254;124714;-82
2023/04/05 07:13:07;;;;;;;;;;;;;;;4.33;53.67;101923.16;107418;1254;61551;-82
2023/04/05 07:15:35;;;;;;;;;;;;;;;4.39;53.40;101927.44;107435;1253;62080;-82
2023/04/05 07:18:01;;;;;;;;;;;;;;;4.39;52.93;101924.33;107231;1254;124410;-82
2023/04/05 07:20:30;;;;;;;;;;;;;;;4.38;52.73;101927.03;107845;1253;65500;-82
2023/04/05 07:22:58;;;;;;;;;;;;;;;4.45;52.68;101928.38;108197;1254;124233;-82
2023/04/05 07:25:27;;;;;;;;;;;;;;;4.48;52.27;101931.19;108212;1253;62174;-82
2023/04/05 07:27:54;;;;;;;;;;;;;;;4.48;52.04;101933.96;107799;1256;61381;-82
2023/04/05 07:30:27;;;;;;;;;;;;;;;4.53;51.87;101930.25;107232;1253;124803;-82
2023/04/05 07:32:55;;;;;;;;;;;;;;;4.53;51.77;101931.50;107259;1253;65897;-82
2023/04/05 07:35:22;;;;;;;;;;;;;;;4.45;51.84;101929.45;107194;1253;124849;-82
2023/04/05 07:37:51;;;;;;;;;;;;;;;4.49;51.74;101936.79;107371;1257;61381;-82
2023/04/05 07:40:19;;;;;;;;;;;;;;;4.47;51.82;101933.88;107197;1254;125008;-82
2023/04/05 07:42:46;;;;;;;;;;;;;;;4.57;51.98;101935.09;107582;1253;75116;-82
2023/04/05 07:45:13;;;;;;;;;;;;;;;4.70;51.68;101933.18;107721;1253;66818;-82
2023/04/05 07:47:41;;;;;;;;;;;;;;;4.79;51.59;101926.33;107761;1253;123974;-82
2023/04/05 07:50:10;;;;;;;;;;;;;;;4.93;51.65;101929.19;107751;1253;61969;-82
2023/04/05 07:52:37;;;;;;;;;;;;;;;5.02;51.22;101925.28;107671;1253;124341;-82
2023/04/05 07:55:06;;;;;;;;;;;;;;;5.11;51.29;101924.06;107447;1253;74170;-83
2023/04/05 07:57:34;;;;;;;;;;;;;;;5.14;50.79;101917.80;107562;1254;65573;-83
2023/04/05 08:00:06;;;;;;;;;;;;;;;5.11;50.73;101923.06;107686;1253;124054;-82
2023/04/05 08:02:35;;;;;;;;;;;;;;;5.13;50.92;101924.20;107760;1254;62868;-82
2023/04/05 08:05:02;;;;;;;;;;;;;;;5.18;50.67;101925.63;107312;1255;124047;-83
2023/04/05 08:07:29;;;;;;;;;;;;;;;5.11;50.62;101917.84;107585;1255;74345;-82
2023/04/05 08:10:03;;;;;;;;;;;;;;;5.17;50.81;101920.84;107381;1258;67594;-82
2023/04/05 08:12:36;;;;;;;;;;;;;;;5.09;50.66;101924.12;107490;1258;123960;-82
2023/04/05 08:15:03;;;;;;;;;;;;;;;5.07;50.92;101923.11;107521;1255;61957;-82
2023/04/05 08:17:30;;;;;;;;;;;;;;;5.10;50.97;101923.69;107748;1256;124598;-82
2023/04/05 08:19:57;;;;;;;;;;;;;;;5.07;50.63;101923.46;108257;1255;73967;-82
2023/04/05 08:22:26;;;;;;;;;;;;;;;4.91;50.56;101918.05;108017;1257;124448;-82
2023/04/05 08:24:59;;;;;;;;;;;;;;;4.85;51.00;101921.70;108302;1255;72947;-82
2023/04/05 08:27:26;;;;;;;;;;;;;;;4.85;51.02;101919.76;108915;1260;60115;-82
2023/04/05 08:30:06;;;;;;;;;;;;;;;4.85;51.07;101919.45;108332;1256;124437;-82
2023/04/05 08:32:34;;;;;;;;;;;;;;;4.84;51.02;101920.20;107368;1257;74608;-82
2023/04/05 08:35:07;;;;;;;;;;;;;;;4.78;50.98;101924.51;107434;1256;124504;-82
2023/04/05 08:37:34;;;;;;;;;;;;;;;4.74;51.02;101923.73;107697;1257;71199;-82
2023/04/05 08:40:07;;;;;;;;;;;;;;;4.71;51.12;101924.20;107852;1255;61999;-83
2023/04/05 08:42:57;;;;;;;;;;;;;;;4.61;51.05;101924.74;107761;1256;125076;-82
2023/04/05 08:45:26;;;;;;;;;;;;;;;4.55;51.25;101920.36;107477;1254;75727;-82
2023/04/05 08:47:53;;;;;;;;;;;;;;;4.57;51.37;101927.63;107325;1256;124920;-82
2023/04/05 08:50:20;;;;;;;;;;;;;;;4.68;51.75;101926.27;107529;1257;71385;-82
2023/04/05 08:52:48;;;;;;;;;;;;;;;4.97;51.88;101920.88;107837;1257;124377;-82
2023/04/05 08:55:15;;;;;;;;;;;;;;;5.33;52.00;101913.17;107705;1256;60403;-82
2023/04/05 08:57:52;;;;;;;;;;;;;;;5.70;51.92;101909.40;107467;1256;74213;-82
2023/04/05 09:00:20;;;;;;;;;;;;;;;6.08;51.71;101906.92;107082;1255;124442;-82
2023/04/05 09:03:06;;;;;;;;;;;;;;;6.43;51.47;101902.44;107465;1255;72404;-82
2023/04/05 09:05:35;;;;;;;;;;;;;;;6.74;51.06;101905.88;107386;1256;124338;-82
2023/04/05 09:08:04;;;;;;;;;;;;;;;6.96;50.41;101907.82;107568;1255;60798;-82
2023/04/05 09:10:32;;;;;;;;;;;;;;;7.15;50.23;101903.54;107511;1257;124763;-82
2023/04/05 09:13:01;;;;;;;;;;;;;;;7.31;49.99;101903.71;107493;1256;67091;-82
2023/04/05 09:15:29;;;;;;;;;;;;;;;7.40;49.62;101908.61;107662;1256;71361;-81
2023/04/05 09:17:57;;;;;;;;;;;;;;;7.25;49.22;101908.65;107409;1255;124186;-82
2023/04/05 09:20:25;;;;;;;;;;;;;;;7.08;49.08;101908.34;107668;1254;61625;-82
2023/04/05 09:22:59;;;;;;;;;;;;;;;6.88;49.08;101907.54;107494;1256;124914;-82
2023/04/05 09:25:33;;;;;;;;;;;;;;;6.58;49.01;101913.44;107520;1262;65752;-82
2023/04/05 09:28:02;;;;;;;;;;;;;;;6.28;49.10;101915.88;107650;1256;70437;-82
2023/04/05 09:30:29;;;;;;;;;;;;;;;5.96;49.10;101919.25;107432;1256;125115;-82
2023/04/05 09:33:02;;;;;;;;;;;;;;;5.65;49.38;101922.33;107492;1255;61096;-81
2023/04/05 09:35:29;;;;;;;;;;;;;;;5.48;49.89;101929.11;107525;1259;124296;-81
2023/04/05 09:37:57;;;;;;;;;;;;;;;5.32;49.88;101930.54;107506;1256;65492;-82
2023/04/05 09:40:39;;;;;;;;;;;;;;;5.12;50.10;101934.11;107141;1256;238074;-82
2023/04/05 09:43:06;;;;;;;;;;;;;;;4.91;50.30;101936.00;107400;1260;60416;-81
2023/04/05 09:45:44;;;;;;;;;;;;;;;4.75;50.50;101934.89;107636;1255;60094;-81
2023/04/05 09:48:12;;;;;;;;;;;;;;;4.60;50.64;101937.40;107387;1255;124569;-82
2023/04/05 09:50:40;;;;;;;;;;;;;;;4.60;50.86;101937.54;107447;1254;67064;-82
2023/04/05 09:53:07;;;;;;;;;;;;;;;4.55;50.82;101943.30;107597;1256;124302;-82
2023/04/05 09:55:35;;;;;;;;;;;;;;;4.48;50.89;101943.19;107455;1255;62143;-82
2023/04/05 09:58:03;;;;;;;;;;;;;;;4.47;50.91;101946.58;107163;1255;61667;-82
2023/04/05 10:00:31;;;;;;;;;;;;;;;4.49;51.05;101944.27;107282;1254;124757;-81
2023/04/05 10:02:58;;;;;;;;;;;;;;;4.53;51.15;101945.23;107483;1256;65067;-81
2023/04/05 10:05:27;;;;;;;;;;;;;;;4.63;51.19;101941.91;107356;1256;124533;-82
2023/04/05 10:07:54;;;;;;;;;;;;;;;4.65;51.02;101944.38;107337;1255;61144;-82
2023/04/05 10:10:27;;;;;;;;;;;;;;;4.77;51.08;101941.83;107333;1254;124876;-82
2023/04/05 10:12:54;;;;;;;;;;;;;;;4.91;50.96;101940.11;107548;1256;74743;-82
2023/04/05 10:15:21;;;;;;;;;;;;;;;5.09;51.07;101942.04;107467;1255;66760;-81
2023/04/05 10:17:48;;;;;;;;;;;;;;;5.36;51.24;101936.84;107100;1259;124239;-82
2023/04/05 10:20:20;;;;;;;;;;;;;;;5.54;50.70;101937.28;107300;1257;60807;-81
2023/04/05 10:22:53;;;;;;;;;;;;;;;5.61;50.64;101940.04;107177;1255;124301;-81
2023/04/05 10:25:23;;;;;;;;;;;;;;;5.79;50.67;101939.96;107446;1255;75526;-81
2023/04/05 10:27:52;;;;;;;;;;;;;;;5.95;50.57;101939.92;107592;1255;66830;-82
2023/04/05 10:30:19;;;;;;;;;;;;;;;6.06;50.35;101942.38;107359;1256;124343;-82
2023/04/05 10:33:05;;;;;;;;;;;;;;;6.07;50.14;101938.41;107308;1256;61557;-82
2023/04/05 10:35:38;;;;;;;;;;;;;;;6.12;50.22;101937.70;107450;1255;124676;-82
2023/04/05 10:38:23;;;;;;;;;;;;;;;6.29;50.18;101933.33;107630;1256;74142;-82
2023/04/05 10:40:52;;;;;;;;;;;;;;;6.47;50.09;101935.66;107751;1258;124401;-82
2023/04/05 10:43:24;;;;;;;;;;;;;;;6.57;49.77;101934.88;107544;1255;72893;-82
2023/04/05 10:45:51;;;;;;;;;;;;;;;6.55;49.44;101935.39;107324;1255;63065;-82
2023/04/05 10:48:36;;;;;;;;;;;;;;;6.55;49.47;101934.75;107261;1255;124169;-83
2023/04/05 10:51:03;;;;;;;;;;;;;;;6.53;49.07;101937.41;107208;1255;75419;-82
2023/04/05 10:53:31;;;;;;;;;;;;;;;6.55;49.08;101938.39;107172;1259;124149;-82
2023/04/05 10:56:00;;;;;;;;;;;;;;;6.62;49.02;101936.91;108048;1256;72406;-82
2023/04/05 10:58:28;;;;;;;;;;;;;;;6.64;48.74;101938.58;107313;1256;124912;-82
2023/04/05 11:00:56;;;;;;;;;;;;;;;6.61;48.63;101936.16;107480;1258;60036;-82
2023/04/05 11:03:42;;;;;;;;;;;;;;;6.76;48.74;101932.70;107374;1260;75361;-82
2023/04/05 11:06:21;;;;;;;;;;;;;;;7.02;48.70;101931.94;107232;1255;124856;-82
2023/04/05 11:08:50;;;;;;;;;;;;;;;7.19;48.52;101928.52;107485;1256;72815;-82
2023/04/05 11:11:18;;;;;;;;;;;;;;;7.23;48.17;101929.84;107439;1260;124733;-82
2023/04/05 11:13:54;;;;;;;;;;;;;;;7.26;48.18;101929.61;107602;1256;62156;-82
2023/04/05 11:16:23;;;;;;;;;;;;;;;7.22;48.22;101927.34;107338;1255;124690;-82
2023/04/05 11:18:51;;;;;;;;;;;;;;;7.38;48.28;101929.25;107549;1255;67050;-82
2023/04/05 11:21:25;;;;;;;;;;;;;;;7.56;48.22;101923.27;107713;1256;71187;-82
2023/04/05 11:23:58;;;;;;;;;;;;;;;7.81;48.16;101927.33;107685;1255;124908;-82
2023/04/05 11:26:44;;;;;;;;;;;;;;;8.06;48.07;101932.36;107604;1256;62047;-82
2023/04/05 11:29:12;;;;;;;;;;;;;;;8.24;47.86;101930.12;107658;1255;124313;-83
2023/04/05 11:32:00;;;;;;;;;;;;;;;8.37;47.58;101935.58;107933;1256;67102;-83
2023/04/05 11:34:27;;;;;;;;;;;;;;;8.34;47.36;101936.45;107560;1256;124460;-83
2023/04/05 11:36:54;;;;;;;;;;;;;;;8.38;47.24;101939.80;107872;1255;62057;-83
2023/04/05 11:39:27;;;;;;;;;;;;;;;8.36;47.08;101938.64;107895;1255;60306;-83
2023/04/05 11:41:56;;;;;;;;;;;;;;;8.26;46.95;101939.67;108696;1256;124334;-83
2023/04/05 11:44:23;;;;;;;;;;;;;;;8.10;46.77;101937.63;107717;1256;67127;-83
2023/04/05 11:46:50;;;;;;;;;;;;;;;7.88;46.80;101937.27;107578;1256;124402;-83
2023/04/05 11:49:18;;;;;;;;;;;;;;;7.71;46.74;101936.52;107643;1255;61510;-83
2023/04/05 11:51:47;;;;;;;;;;;;;;;7.63;46.88;101936.08;107827;1256;62626;-82
2023/04/05 11:54:38;;;;;;;;;;;;;;;7.60;46.99;101934.70;107676;1256;124110;-82
2023/04/05 11:57:06;;;;;;;;;;;;;;;7.56;47.22;101942.20;107681;1258;67178;-83
2023/04/05 11:59:34;;;;;;;;;;;;;;;7.57;47.28;101942.78;107393;1256;124763;-82
2023/04/05 12:02:07;;;;;;;;;;;;;;;7.58;47.43;101943.19;107421;1256;61893;-82
2023/04/05 12:04:35;;;;;;;;;;;;;;;7.64;47.40;101937.91;107211;1256;124717;-82
2023/04/05 12:07:09;;;;;;;;;;;;;;;7.70;47.44;101932.63;107364;1256;75266;-83
2023/04/05 12:09:58;;;;;;;;;;;;;;;7.81;47.63;101933.91;107567;1255;67297;-82
2023/04/05 12:12:25;;;;;;;;;;;;;;;7.87;47.48;101931.98;107556;1253;124092;-83
2023/04/05 12:15:13;;;;;;;;;;;;;;;7.88;47.54;101929.95;108115;1256;62125;-83
2023/04/05 12:17:49;;;;;;;;;;;;;;;7.86;47.34;101927.73;107448;1256;125812;-82
2023/04/05 12:20:20;;;;;;;;;;;;;;;7.69;47.15;101924.73;107672;1255;75450;-83
2023/04/05 12:22:48;;;;;;;;;;;;;;;7.52;47.05;101926.92;107525;1254;124534;-83
2023/04/05 12:25:15;;;;;;;;;;;;;;;7.46;47.29;101928.13;107683;1255;72678;-84
2023/04/05 12:27:43;;;;;;;;;;;;;;;7.36;47.36;101924.80;107387;1256;60776;-82
2023/04/05 12:30:13;;;;;;;;;;;;;;;7.31;47.43;101922.92;107154;1261;125250;-83
2023/04/05 12:32:47;;;;;;;;;;;;;;;7.22;47.29;101920.69;107355;1253;74767;-82
2023/04/05 12:35:34;;;;;;;;;;;;;;;7.16;47.49;101919.99;107184;1253;124038;-83
2023/04/05 12:38:02;;;;;;;;;;;;;;;7.20;47.54;101918.13;107206;1259;73267;-83
2023/04/05 12:40:31;;;;;;;;;;;;;;;7.19;47.43;101918.06;107203;1254;124881;-82
2023/04/05 12:43:18;;;;;;;;;;;;;;;7.25;47.55;101915.76;107566;1257;62521;-83
2023/04/05 12:45:45;;;;;;;;;;;;;;;7.29;47.45;101916.16;107100;1255;75554;-83
2023/04/05 12:48:14;;;;;;;;;;;;;;;7.31;47.37;101922.41;107037;1254;124799;-82